sensor_id;sensor_type;location;lat;lon;timestamp;P1;durP1;ratioP1;P2;durP2;ratioP2
22567;SDS011;11450;50.818;4.382;2022-11-20T00:01:22;47.38;;;29.50;;
22567;SDS011;11450;50.818;4.382;2022-11-20T00:03:53;46.53;;;29.15;;
22567;SDS011;11450;50.818;4.382;2022-11-20T00:06:20;45.22;;;28.80;;
22567;SDS011;11450;50.818;4.382;2022-11-20T00:08:47;44.55;;;28.67;;
22567;SDS011;11450;50.818;4.382;2022-11-20T00:11:14;43.35;;;28.13;;
22567;SDS011;11450;50.818;4.382;2022-11-20T00:13:41;45.67;;;29.50;;
22567;SDS011;11450;50.818;4.382;2022-11-20T00:16:12;46.05;;;27.90;;
22567;SDS011;11450;50.818;4.382;2022-11-20T00:18:39;46.60;;;30.60;;
22567;SDS011;11450;50.818;4.382;2022-11-20T00:21:06;47.72;;;29.60;;
22567;SDS011;11450;50.818;4.382;2022-11-20T00:23:34;44.65;;;30.40;;
22567;SDS011;11450;50.818;4.382;2022-11-20T00:26:03;50.58;;;30.73;;
22567;SDS011;11450;50.818;4.382;2022-11-20T00:28:35;45.70;;;29.48;;
22567;SDS011;11450;50.818;4.382;2022-11-20T00:31:04;43.25;;;28.58;;
22567;SDS011;11450;50.818;4.382;2022-11-20T00:33:35;46.42;;;30.10;;
22567;SDS011;11450;50.818;4.382;2022-11-20T00:36:02;46.95;;;29.85;;
22567;SDS011;11450;50.818;4.382;2022-11-20T00:38:29;47.08;;;29.20;;
22567;SDS011;11450;50.818;4.382;2022-11-20T00:40:56;44.78;;;29.27;;
22567;SDS011;11450;50.818;4.382;2022-11-20T00:43:23;42.13;;;28.75;;
22567;SDS011;11450;50.818;4.382;2022-11-20T00:45:49;39.22;;;27.83;;
22567;SDS011;11450;50.818;4.382;2022-11-20T00:48:15;43.83;;;28.17;;
22567;SDS011;11450;50.818;4.382;2022-11-20T00:50:41;44.92;;;29.25;;
22567;SDS011;11450;50.818;4.382;2022-11-20T00:53:07;42.30;;;28.00;;
22567;SDS011;11450;50.818;4.382;2022-11-20T00:55:32;41.58;;;28.52;;
22567;SDS011;11450;50.818;4.382;2022-11-20T00:58:01;47.20;;;28.80;;
22567;SDS011;11450;50.818;4.382;2022-11-20T01:00:27;41.85;;;28.95;;
22567;SDS011;11450;50.818;4.382;2022-11-20T01:02:55;44.35;;;28.98;;
22567;SDS011;11450;50.818;4.382;2022-11-20T01:05:20;47.15;;;28.33;;
22567;SDS011;11450;50.818;4.382;2022-11-20T01:07:46;41.25;;;27.00;;
22567;SDS011;11450;50.818;4.382;2022-11-20T01:10:12;35.28;;;26.45;;
22567;SDS011;11450;50.818;4.382;2022-11-20T01:12:37;39.75;;;27.48;;
22567;SDS011;11450;50.818;4.382;2022-11-20T01:15:03;40.58;;;27.52;;
22567;SDS011;11450;50.818;4.382;2022-11-20T01:17:29;43.13;;;28.15;;
22567;SDS011;11450;50.818;4.382;2022-11-20T01:19:56;42.83;;;27.67;;
22567;SDS011;11450;50.818;4.382;2022-11-20T01:22:22;42.17;;;27.33;;
22567;SDS011;11450;50.818;4.382;2022-11-20T01:24:47;43.63;;;28.67;;
22567;SDS011;11450;50.818;4.382;2022-11-20T01:27:13;39.00;;;26.95;;
22567;SDS011;11450;50.818;4.382;2022-11-20T01:29:39;40.78;;;27.67;;
22567;SDS011;11450;50.818;4.382;2022-11-20T01:32:04;41.42;;;27.85;;
22567;SDS011;11450;50.818;4.382;2022-11-20T01:34:30;40.60;;;26.67;;
22567;SDS011;11450;50.818;4.382;2022-11-20T01:36:56;39.70;;;27.05;;
22567;SDS011;11450;50.818;4.382;2022-11-20T01:39:22;42.42;;;29.30;;
22567;SDS011;11450;50.818;4.382;2022-11-20T01:41:50;39.03;;;26.98;;
22567;SDS011;11450;50.818;4.382;2022-11-20T01:44:52;40.22;;;28.77;;
22567;SDS011;11450;50.818;4.382;2022-11-20T01:47:21;41.03;;;27.35;;
22567;SDS011;11450;50.818;4.382;2022-11-20T01:49:54;43.53;;;28.08;;
22567;SDS011;11450;50.818;4.382;2022-11-20T01:52:48;40.72;;;29.08;;
22567;SDS011;11450;50.818;4.382;2022-11-20T01:55:19;43.28;;;28.67;;
22567;SDS011;11450;50.818;4.382;2022-11-20T01:57:50;41.72;;;28.40;;
22567;SDS011;11450;50.818;4.382;2022-11-20T02:00:17;46.13;;;28.90;;
22567;SDS011;11450;50.818;4.382;2022-11-20T02:02:55;45.42;;;29.88;;
22567;SDS011;11450;50.818;4.382;2022-11-20T02:07:54;42.35;;;29.30;;
22567;SDS011;11450;50.818;4.382;2022-11-20T02:10:22;41.88;;;30.27;;
22567;SDS011;11450;50.818;4.382;2022-11-20T02:12:48;43.78;;;30.23;;
22567;SDS011;11450;50.818;4.382;2022-11-20T02:15:32;40.72;;;28.73;;
22567;SDS011;11450;50.818;4.382;2022-11-20T02:17:59;46.58;;;29.05;;
22567;SDS011;11450;50.818;4.382;2022-11-20T02:20:25;43.38;;;28.63;;
22567;SDS011;11450;50.818;4.382;2022-11-20T02:22:54;41.88;;;27.50;;
22567;SDS011;11450;50.818;4.382;2022-11-20T02:25:27;44.90;;;28.23;;
22567;SDS011;11450;50.818;4.382;2022-11-20T02:27:53;41.95;;;26.45;;
22567;SDS011;11450;50.818;4.382;2022-11-20T02:30:19;44.38;;;26.75;;
22567;SDS011;11450;50.818;4.382;2022-11-20T02:32:45;42.58;;;27.15;;
22567;SDS011;11450;50.818;4.382;2022-11-20T02:37:49;42.37;;;28.10;;
22567;SDS011;11450;50.818;4.382;2022-11-20T02:40:18;42.15;;;26.95;;
22567;SDS011;11450;50.818;4.382;2022-11-20T02:42:43;40.92;;;27.50;;
22567;SDS011;11450;50.818;4.382;2022-11-20T02:45:09;43.05;;;27.58;;
22567;SDS011;11450;50.818;4.382;2022-11-20T02:47:35;40.50;;;25.50;;
22567;SDS011;11450;50.818;4.382;2022-11-20T02:50:01;41.97;;;26.42;;
22567;SDS011;11450;50.818;4.382;2022-11-20T02:52:26;39.88;;;25.27;;
22567;SDS011;11450;50.818;4.382;2022-11-20T02:54:52;41.85;;;26.92;;
22567;SDS011;11450;50.818;4.382;2022-11-20T02:57:18;40.55;;;23.67;;
22567;SDS011;11450;50.818;4.382;2022-11-20T02:59:43;40.75;;;25.65;;
22567;SDS011;11450;50.818;4.382;2022-11-20T03:02:09;35.55;;;23.33;;
22567;SDS011;11450;50.818;4.382;2022-11-20T03:04:35;38.33;;;22.80;;
22567;SDS011;11450;50.818;4.382;2022-11-20T03:07:00;36.60;;;22.85;;
22567;SDS011;11450;50.818;4.382;2022-11-20T03:09:26;34.55;;;22.50;;
22567;SDS011;11450;50.818;4.382;2022-11-20T03:11:51;38.05;;;22.80;;
22567;SDS011;11450;50.818;4.382;2022-11-20T03:14:17;35.58;;;22.35;;
22567;SDS011;11450;50.818;4.382;2022-11-20T03:16:43;35.92;;;21.23;;
22567;SDS011;11450;50.818;4.382;2022-11-20T03:19:08;35.90;;;22.70;;
22567;SDS011;11450;50.818;4.382;2022-11-20T03:21:35;34.63;;;22.13;;
22567;SDS011;11450;50.818;4.382;2022-11-20T03:24:01;34.53;;;21.90;;
22567;SDS011;11450;50.818;4.382;2022-11-20T03:26:27;31.38;;;20.98;;
22567;SDS011;11450;50.818;4.382;2022-11-20T03:28:54;36.45;;;22.45;;
22567;SDS011;11450;50.818;4.382;2022-11-20T03:31:22;32.15;;;21.50;;
22567;SDS011;11450;50.818;4.382;2022-11-20T03:33:49;36.17;;;21.10;;
22567;SDS011;11450;50.818;4.382;2022-11-20T03:36:16;31.83;;;21.15;;
22567;SDS011;11450;50.818;4.382;2022-11-20T03:38:43;37.33;;;22.73;;
22567;SDS011;11450;50.818;4.382;2022-11-20T03:41:09;32.70;;;21.70;;
22567;SDS011;11450;50.818;4.382;2022-11-20T03:43:37;37.47;;;23.50;;
22567;SDS011;11450;50.818;4.382;2022-11-20T03:46:03;31.77;;;22.05;;
22567;SDS011;11450;50.818;4.382;2022-11-20T03:48:29;34.08;;;22.08;;
22567;SDS011;11450;50.818;4.382;2022-11-20T03:53:33;34.42;;;23.33;;
22567;SDS011;11450;50.818;4.382;2022-11-20T03:55:59;39.15;;;24.02;;
22567;SDS011;11450;50.818;4.382;2022-11-20T03:58:25;41.25;;;24.88;;
22567;SDS011;11450;50.818;4.382;2022-11-20T04:00:51;38.83;;;24.15;;
22567;SDS011;11450;50.818;4.382;2022-11-20T04:03:16;40.03;;;24.70;;
22567;SDS011;11450;50.818;4.382;2022-11-20T04:05:42;41.83;;;24.55;;
22567;SDS011;11450;50.818;4.382;2022-11-20T04:08:07;39.47;;;25.17;;
22567;SDS011;11450;50.818;4.382;2022-11-20T04:10:33;38.35;;;24.42;;
22567;SDS011;11450;50.818;4.382;2022-11-20T04:12:59;42.90;;;24.23;;
22567;SDS011;11450;50.818;4.382;2022-11-20T04:15:24;39.78;;;24.58;;
22567;SDS011;11450;50.818;4.382;2022-11-20T04:17:50;42.22;;;26.33;;
22567;SDS011;11450;50.818;4.382;2022-11-20T04:20:16;41.20;;;23.60;;
22567;SDS011;11450;50.818;4.382;2022-11-20T04:22:41;43.85;;;26.00;;
22567;SDS011;11450;50.818;4.382;2022-11-20T04:25:07;38.60;;;24.23;;
22567;SDS011;11450;50.818;4.382;2022-11-20T04:27:33;39.63;;;24.02;;
22567;SDS011;11450;50.818;4.382;2022-11-20T04:29:59;39.28;;;24.10;;
22567;SDS011;11450;50.818;4.382;2022-11-20T04:32:24;45.40;;;25.65;;
22567;SDS011;11450;50.818;4.382;2022-11-20T04:34:50;42.40;;;25.55;;
22567;SDS011;11450;50.818;4.382;2022-11-20T04:37:15;43.72;;;26.45;;
22567;SDS011;11450;50.818;4.382;2022-11-20T04:39:41;46.08;;;26.75;;
22567;SDS011;11450;50.818;4.382;2022-11-20T04:42:08;43.53;;;26.77;;
22567;SDS011;11450;50.818;4.382;2022-11-20T04:44:53;44.17;;;25.65;;
22567;SDS011;11450;50.818;4.382;2022-11-20T04:47:19;45.63;;;27.20;;
22567;SDS011;11450;50.818;4.382;2022-11-20T04:49:44;52.22;;;28.27;;
22567;SDS011;11450;50.818;4.382;2022-11-20T04:52:10;47.78;;;28.40;;
22567;SDS011;11450;50.818;4.382;2022-11-20T04:54:35;49.45;;;27.88;;
22567;SDS011;11450;50.818;4.382;2022-11-20T04:57:01;51.45;;;28.88;;
22567;SDS011;11450;50.818;4.382;2022-11-20T04:59:27;49.80;;;27.27;;
22567;SDS011;11450;50.818;4.382;2022-11-20T05:01:52;56.55;;;28.50;;
22567;SDS011;11450;50.818;4.382;2022-11-20T05:04:18;53.75;;;28.85;;
22567;SDS011;11450;50.818;4.382;2022-11-20T05:06:43;53.33;;;27.92;;
22567;SDS011;11450;50.818;4.382;2022-11-20T05:09:10;50.85;;;28.33;;
22567;SDS011;11450;50.818;4.382;2022-11-20T05:11:37;50.80;;;28.58;;
22567;SDS011;11450;50.818;4.382;2022-11-20T05:14:02;53.47;;;27.83;;
22567;SDS011;11450;50.818;4.382;2022-11-20T05:16:28;52.13;;;28.48;;
22567;SDS011;11450;50.818;4.382;2022-11-20T05:18:54;50.88;;;28.55;;
22567;SDS011;11450;50.818;4.382;2022-11-20T05:21:20;54.00;;;29.25;;
22567;SDS011;11450;50.818;4.382;2022-11-20T05:23:47;54.65;;;29.63;;
22567;SDS011;11450;50.818;4.382;2022-11-20T05:26:20;48.25;;;27.77;;
22567;SDS011;11450;50.818;4.382;2022-11-20T05:28:47;56.28;;;29.23;;
22567;SDS011;11450;50.818;4.382;2022-11-20T05:31:20;57.83;;;29.40;;
22567;SDS011;11450;50.818;4.382;2022-11-20T05:33:47;50.72;;;29.00;;
22567;SDS011;11450;50.818;4.382;2022-11-20T05:36:13;49.30;;;27.25;;
22567;SDS011;11450;50.818;4.382;2022-11-20T05:38:39;53.20;;;28.05;;
22567;SDS011;11450;50.818;4.382;2022-11-20T05:41:13;52.90;;;29.55;;
22567;SDS011;11450;50.818;4.382;2022-11-20T05:43:44;51.80;;;28.13;;
22567;SDS011;11450;50.818;4.382;2022-11-20T05:46:12;55.50;;;29.08;;
22567;SDS011;11450;50.818;4.382;2022-11-20T05:48:39;54.67;;;29.30;;
22567;SDS011;11450;50.818;4.382;2022-11-20T05:51:07;53.13;;;29.50;;
22567;SDS011;11450;50.818;4.382;2022-11-20T05:53:34;56.42;;;29.50;;
22567;SDS011;11450;50.818;4.382;2022-11-20T05:56:02;58.38;;;29.35;;
22567;SDS011;11450;50.818;4.382;2022-11-20T05:58:48;56.83;;;27.95;;
22567;SDS011;11450;50.818;4.382;2022-11-20T06:03:44;61.10;;;30.60;;
22567;SDS011;11450;50.818;4.382;2022-11-20T06:06:12;56.55;;;29.33;;
22567;SDS011;11450;50.818;4.382;2022-11-20T06:08:39;61.88;;;29.75;;
22567;SDS011;11450;50.818;4.382;2022-11-20T06:11:06;61.28;;;29.88;;
22567;SDS011;11450;50.818;4.382;2022-11-20T06:13:33;55.28;;;29.60;;
22567;SDS011;11450;50.818;4.382;2022-11-20T06:16:00;64.50;;;29.70;;
22567;SDS011;11450;50.818;4.382;2022-11-20T06:18:26;62.53;;;29.70;;
22567;SDS011;11450;50.818;4.382;2022-11-20T06:21:00;58.60;;;30.13;;
22567;SDS011;11450;50.818;4.382;2022-11-20T06:23:31;53.85;;;30.10;;
22567;SDS011;11450;50.818;4.382;2022-11-20T06:26:01;58.55;;;30.52;;
22567;SDS011;11450;50.818;4.382;2022-11-20T06:28:31;54.63;;;28.98;;
22567;SDS011;11450;50.818;4.382;2022-11-20T06:30:57;62.25;;;31.95;;
22567;SDS011;11450;50.818;4.382;2022-11-20T06:33:23;62.17;;;30.80;;
22567;SDS011;11450;50.818;4.382;2022-11-20T06:35:49;58.20;;;28.23;;
22567;SDS011;11450;50.818;4.382;2022-11-20T06:38:14;56.60;;;29.05;;
22567;SDS011;11450;50.818;4.382;2022-11-20T06:40:40;58.13;;;28.45;;
22567;SDS011;11450;50.818;4.382;2022-11-20T06:43:07;57.78;;;28.05;;
22567;SDS011;11450;50.818;4.382;2022-11-20T06:45:33;59.80;;;29.83;;
22567;SDS011;11450;50.818;4.382;2022-11-20T06:47:59;60.72;;;31.77;;
22567;SDS011;11450;50.818;4.382;2022-11-20T06:50:24;57.92;;;29.65;;
22567;SDS011;11450;50.818;4.382;2022-11-20T06:52:50;55.58;;;28.27;;
22567;SDS011;11450;50.818;4.382;2022-11-20T06:55:15;59.05;;;31.33;;
22567;SDS011;11450;50.818;4.382;2022-11-20T06:57:41;56.85;;;28.80;;
22567;SDS011;11450;50.818;4.382;2022-11-20T07:00:07;56.20;;;29.48;;
22567;SDS011;11450;50.818;4.382;2022-11-20T07:02:33;55.67;;;29.40;;
22567;SDS011;11450;50.818;4.382;2022-11-20T07:04:58;55.08;;;27.80;;
22567;SDS011;11450;50.818;4.382;2022-11-20T07:07:24;58.40;;;29.67;;
22567;SDS011;11450;50.818;4.382;2022-11-20T07:09:50;55.13;;;28.83;;
22567;SDS011;11450;50.818;4.382;2022-11-20T07:12:15;53.05;;;28.38;;
22567;SDS011;11450;50.818;4.382;2022-11-20T07:14:41;49.00;;;27.08;;
22567;SDS011;11450;50.818;4.382;2022-11-20T07:17:06;51.47;;;27.90;;
22567;SDS011;11450;50.818;4.382;2022-11-20T07:19:32;48.00;;;26.92;;
22567;SDS011;11450;50.818;4.382;2022-11-20T07:21:57;51.92;;;27.20;;
22567;SDS011;11450;50.818;4.382;2022-11-20T07:24:23;43.17;;;24.95;;
22567;SDS011;11450;50.818;4.382;2022-11-20T07:26:49;51.22;;;28.88;;
22567;SDS011;11450;50.818;4.382;2022-11-20T07:29:15;47.72;;;27.02;;
22567;SDS011;11450;50.818;4.382;2022-11-20T07:31:41;46.20;;;26.45;;
22567;SDS011;11450;50.818;4.382;2022-11-20T07:34:07;50.17;;;26.73;;
22567;SDS011;11450;50.818;4.382;2022-11-20T07:36:33;48.63;;;25.65;;
22567;SDS011;11450;50.818;4.382;2022-11-20T07:38:59;52.05;;;28.20;;
22567;SDS011;11450;50.818;4.382;2022-11-20T07:41:24;60.22;;;27.90;;
22567;SDS011;11450;50.818;4.382;2022-11-20T07:43:50;58.30;;;28.40;;
22567;SDS011;11450;50.818;4.382;2022-11-20T07:46:16;56.67;;;29.77;;
22567;SDS011;11450;50.818;4.382;2022-11-20T07:48:41;58.85;;;27.52;;
22567;SDS011;11450;50.818;4.382;2022-11-20T07:51:07;54.80;;;26.80;;
22567;SDS011;11450;50.818;4.382;2022-11-20T07:53:32;53.53;;;27.00;;
22567;SDS011;11450;50.818;4.382;2022-11-20T07:56:02;56.97;;;26.42;;
22567;SDS011;11450;50.818;4.382;2022-11-20T07:58:30;56.85;;;27.17;;
22567;SDS011;11450;50.818;4.382;2022-11-20T08:00:58;52.53;;;25.70;;
22567;SDS011;11450;50.818;4.382;2022-11-20T08:03:30;56.60;;;27.33;;
22567;SDS011;11450;50.818;4.382;2022-11-20T08:05:58;55.22;;;26.40;;
22567;SDS011;11450;50.818;4.382;2022-11-20T08:08:25;51.33;;;25.95;;
22567;SDS011;11450;50.818;4.382;2022-11-20T08:10:52;51.90;;;25.88;;
22567;SDS011;11450;50.818;4.382;2022-11-20T08:13:17;54.42;;;27.92;;
22567;SDS011;11450;50.818;4.382;2022-11-20T08:16:01;49.88;;;26.65;;
22567;SDS011;11450;50.818;4.382;2022-11-20T08:18:27;59.88;;;27.35;;
22567;SDS011;11450;50.818;4.382;2022-11-20T08:20:53;60.78;;;32.08;;
22567;SDS011;11450;50.818;4.382;2022-11-20T08:23:18;56.17;;;27.70;;
22567;SDS011;11450;50.818;4.382;2022-11-20T08:25:48;53.28;;;28.40;;
22567;SDS011;11450;50.818;4.382;2022-11-20T08:28:14;52.45;;;26.17;;
22567;SDS011;11450;50.818;4.382;2022-11-20T08:30:40;54.80;;;26.83;;
22567;SDS011;11450;50.818;4.382;2022-11-20T08:33:06;69.25;;;32.85;;
22567;SDS011;11450;50.818;4.382;2022-11-20T08:35:34;64.53;;;30.80;;
22567;SDS011;11450;50.818;4.382;2022-11-20T08:38:01;74.03;;;41.70;;
22567;SDS011;11450;50.818;4.382;2022-11-20T08:40:28;61.75;;;29.67;;
22567;SDS011;11450;50.818;4.382;2022-11-20T08:42:54;55.95;;;26.25;;
22567;SDS011;11450;50.818;4.382;2022-11-20T08:45:19;59.90;;;27.67;;
22567;SDS011;11450;50.818;4.382;2022-11-20T08:47:45;53.15;;;28.23;;
22567;SDS011;11450;50.818;4.382;2022-11-20T08:50:12;57.50;;;27.50;;
22567;SDS011;11450;50.818;4.382;2022-11-20T08:52:39;75.88;;;47.40;;
22567;SDS011;11450;50.818;4.382;2022-11-20T08:55:05;52.42;;;26.50;;
22567;SDS011;11450;50.818;4.382;2022-11-20T08:57:32;51.95;;;25.73;;
22567;SDS011;11450;50.818;4.382;2022-11-20T08:59:58;48.90;;;25.60;;
22567;SDS011;11450;50.818;4.382;2022-11-20T09:02:24;46.50;;;25.42;;
22567;SDS011;11450;50.818;4.382;2022-11-20T09:04:50;52.85;;;26.20;;
22567;SDS011;11450;50.818;4.382;2022-11-20T09:07:16;49.60;;;25.05;;
22567;SDS011;11450;50.818;4.382;2022-11-20T09:09:41;47.35;;;23.77;;
22567;SDS011;11450;50.818;4.382;2022-11-20T09:12:07;48.03;;;24.83;;
22567;SDS011;11450;50.818;4.382;2022-11-20T09:14:33;46.70;;;24.48;;
22567;SDS011;11450;50.818;4.382;2022-11-20T09:16:58;41.65;;;22.25;;
22567;SDS011;11450;50.818;4.382;2022-11-20T09:19:24;44.95;;;24.40;;
22567;SDS011;11450;50.818;4.382;2022-11-20T09:21:50;41.65;;;22.88;;
22567;SDS011;11450;50.818;4.382;2022-11-20T09:24:16;42.45;;;22.67;;
22567;SDS011;11450;50.818;4.382;2022-11-20T09:26:42;39.50;;;23.60;;
22567;SDS011;11450;50.818;4.382;2022-11-20T09:29:07;36.97;;;22.40;;
22567;SDS011;11450;50.818;4.382;2022-11-20T09:31:33;40.45;;;22.95;;
22567;SDS011;11450;50.818;4.382;2022-11-20T09:33:58;42.90;;;22.00;;
22567;SDS011;11450;50.818;4.382;2022-11-20T09:36:24;36.42;;;20.23;;
22567;SDS011;11450;50.818;4.382;2022-11-20T09:38:50;39.38;;;21.55;;
22567;SDS011;11450;50.818;4.382;2022-11-20T09:47:02;37.78;;;21.30;;
22567;SDS011;11450;50.818;4.382;2022-11-20T09:55:08;33.88;;;21.42;;
22567;SDS011;11450;50.818;4.382;2022-11-20T09:57:37;35.92;;;22.00;;
22567;SDS011;11450;50.818;4.382;2022-11-20T10:00:10;68.75;;;38.90;;
22567;SDS011;11450;50.818;4.382;2022-11-20T10:02:41;41.10;;;23.52;;
22567;SDS011;11450;50.818;4.382;2022-11-20T10:05:15;66.38;;;34.67;;
22567;SDS011;11450;50.818;4.382;2022-11-20T10:27:15;16.20;;;10.15;;
22567;SDS011;11450;50.818;4.382;2022-11-20T10:30:11;16.63;;;8.60;;
22567;SDS011;11450;50.818;4.382;2022-11-20T10:33:39;13.48;;;8.15;;
22567;SDS011;11450;50.818;4.382;2022-11-20T10:35:44;13.75;;;7.63;;
22567;SDS011;11450;50.818;4.382;2022-11-20T10:38:20;12.15;;;7.55;;
22567;SDS011;11450;50.818;4.382;2022-11-20T10:40:51;16.65;;;7.05;;
22567;SDS011;11450;50.818;4.382;2022-11-20T10:43:41;12.43;;;6.35;;
22567;SDS011;11450;50.818;4.382;2022-11-20T10:46:15;10.75;;;5.63;;
22567;SDS011;11450;50.818;4.382;2022-11-20T11:01:53;9.30;;;3.72;;
22567;SDS011;11450;50.818;4.382;2022-11-20T11:06:54;8.60;;;4.22;;
22567;SDS011;11450;50.818;4.382;2022-11-20T11:09:32;12.35;;;3.50;;
22567;SDS011;11450;50.818;4.382;2022-11-20T11:12:05;5.68;;;3.33;;
22567;SDS011;11450;50.818;4.382;2022-11-20T11:14:41;7.63;;;3.75;;
22567;SDS011;11450;50.818;4.382;2022-11-20T11:17:20;9.68;;;3.80;;
22567;SDS011;11450;50.818;4.382;2022-11-20T11:22:28;9.07;;;3.25;;
22567;SDS011;11450;50.818;4.382;2022-11-20T11:24:56;10.95;;;3.35;;
22567;SDS011;11450;50.818;4.382;2022-11-20T11:27:21;7.38;;;3.15;;
22567;SDS011;11450;50.818;4.382;2022-11-20T11:29:47;6.32;;;3.00;;
22567;SDS011;11450;50.818;4.382;2022-11-20T11:32:20;6.45;;;2.90;;
22567;SDS011;11450;50.818;4.382;2022-11-20T11:35:03;4.82;;;2.90;;
22567;SDS011;11450;50.818;4.382;2022-11-20T11:38:04;7.07;;;2.97;;
22567;SDS011;11450;50.818;4.382;2022-11-20T11:40:35;7.38;;;3.47;;
22567;SDS011;11450;50.818;4.382;2022-11-20T11:43:15;4.63;;;3.20;;
22567;SDS011;11450;50.818;4.382;2022-11-20T11:46:03;6.97;;;3.40;;
22567;SDS011;11450;50.818;4.382;2022-11-20T11:49:14;9.45;;;3.03;;
22567;SDS011;11450;50.818;4.382;2022-11-20T11:54:47;8.77;;;3.00;;
22567;SDS011;11450;50.818;4.382;2022-11-20T12:05:26;7.03;;;3.10;;
22567;SDS011;11450;50.818;4.382;2022-11-20T12:08:31;6.13;;;3.00;;
22567;SDS011;11450;50.818;4.382;2022-11-20T12:11:11;8.38;;;3.05;;
22567;SDS011;11450;50.818;4.382;2022-11-20T12:16:27;8.10;;;2.33;;
22567;SDS011;11450;50.818;4.382;2022-11-20T12:18:58;7.35;;;2.63;;
22567;SDS011;11450;50.818;4.382;2022-11-20T12:30:18;9.40;;;3.33;;
22567;SDS011;11450;50.818;4.382;2022-11-20T12:36:17;7.38;;;3.13;;
22567;SDS011;11450;50.818;4.382;2022-11-20T12:44:02;7.63;;;2.70;;
22567;SDS011;11450;50.818;4.382;2022-11-20T12:47:14;11.07;;;3.42;;
22567;SDS011;11450;50.818;4.382;2022-11-20T12:53:04;5.45;;;2.40;;
22567;SDS011;11450;50.818;4.382;2022-11-20T13:19:23;4.18;;;2.60;;
22567;SDS011;11450;50.818;4.382;2022-11-20T13:21:53;5.15;;;2.75;;
22567;SDS011;11450;50.818;4.382;2022-11-20T13:26:48;3.40;;;2.70;;
22567;SDS011;11450;50.818;4.382;2022-11-20T13:29:33;7.32;;;3.50;;
22567;SDS011;11450;50.818;4.382;2022-11-20T13:32:36;6.40;;;3.22;;
22567;SDS011;11450;50.818;4.382;2022-11-20T13:35:12;6.13;;;3.28;;
22567;SDS011;11450;50.818;4.382;2022-11-20T13:38:09;4.60;;;2.67;;
22567;SDS011;11450;50.818;4.382;2022-11-20T13:40:38;4.57;;;2.75;;
22567;SDS011;11450;50.818;4.382;2022-11-20T13:45:54;4.85;;;2.80;;
22567;SDS011;11450;50.818;4.382;2022-11-20T13:48:26;6.43;;;2.22;;
22567;SDS011;11450;50.818;4.382;2022-11-20T13:51:03;3.38;;;2.90;;
22567;SDS011;11450;50.818;4.382;2022-11-20T13:53:48;4.55;;;2.63;;
22567;SDS011;11450;50.818;4.382;2022-11-20T14:02:18;3.90;;;2.13;;
22567;SDS011;11450;50.818;4.382;2022-11-20T14:04:48;3.83;;;1.77;;
22567;SDS011;11450;50.818;4.382;2022-11-20T14:10:23;3.70;;;2.25;;
22567;SDS011;11450;50.818;4.382;2022-11-20T14:12:50;3.63;;;3.17;;
22567;SDS011;11450;50.818;4.382;2022-11-20T14:15:30;7.97;;;2.97;;
22567;SDS011;11450;50.818;4.382;2022-11-20T14:17:57;4.90;;;2.88;;
22567;SDS011;11450;50.818;4.382;2022-11-20T14:20:27;3.38;;;2.88;;
22567;SDS011;11450;50.818;4.382;2022-11-20T14:22:56;3.80;;;1.88;;
22567;SDS011;11450;50.818;4.382;2022-11-20T14:25:23;2.40;;;2.15;;
22567;SDS011;11450;50.818;4.382;2022-11-20T14:27:57;8.05;;;4.00;;
22567;SDS011;11450;50.818;4.382;2022-11-20T14:30:43;3.45;;;2.25;;
22567;SDS011;11450;50.818;4.382;2022-11-20T14:33:14;3.80;;;2.30;;
22567;SDS011;11450;50.818;4.382;2022-11-20T14:38:13;2.92;;;1.90;;
22567;SDS011;11450;50.818;4.382;2022-11-20T14:40:41;2.15;;;1.95;;
22567;SDS011;11450;50.818;4.382;2022-11-20T14:43:23;2.42;;;2.17;;
22567;SDS011;11450;50.818;4.382;2022-11-20T14:46:00;6.07;;;4.22;;
22567;SDS011;11450;50.818;4.382;2022-11-20T14:48:38;15.52;;;8.23;;
22567;SDS011;11450;50.818;4.382;2022-11-20T14:51:12;3.70;;;2.40;;
22567;SDS011;11450;50.818;4.382;2022-11-20T14:54:10;18.08;;;13.50;;
22567;SDS011;11450;50.818;4.382;2022-11-20T14:56:40;5.32;;;3.08;;
22567;SDS011;11450;50.818;4.382;2022-11-20T14:59:08;4.45;;;2.97;;
22567;SDS011;11450;50.818;4.382;2022-11-20T15:01:34;4.32;;;3.40;;
22567;SDS011;11450;50.818;4.382;2022-11-20T15:04:00;6.82;;;2.92;;
22567;SDS011;11450;50.818;4.382;2022-11-20T15:06:31;4.75;;;3.33;;
22567;SDS011;11450;50.818;4.382;2022-11-20T15:08:56;5.55;;;2.83;;
22567;SDS011;11450;50.818;4.382;2022-11-20T15:11:27;7.00;;;3.30;;
22567;SDS011;11450;50.818;4.382;2022-11-20T15:13:55;3.45;;;2.50;;
22567;SDS011;11450;50.818;4.382;2022-11-20T15:16:22;3.33;;;2.53;;
22567;SDS011;11450;50.818;4.382;2022-11-20T15:18:49;5.75;;;2.35;;
22567;SDS011;11450;50.818;4.382;2022-11-20T15:21:16;3.28;;;2.17;;
22567;SDS011;11450;50.818;4.382;2022-11-20T15:23:43;4.88;;;2.22;;
22567;SDS011;11450;50.818;4.382;2022-11-20T15:26:09;3.20;;;2.65;;
22567;SDS011;11450;50.818;4.382;2022-11-20T15:31:24;5.20;;;2.90;;
22567;SDS011;11450;50.818;4.382;2022-11-20T15:33:50;5.88;;;2.83;;
22567;SDS011;11450;50.818;4.382;2022-11-20T15:36:16;5.78;;;3.60;;
22567;SDS011;11450;50.818;4.382;2022-11-20T15:38:41;5.10;;;3.17;;
22567;SDS011;11450;50.818;4.382;2022-11-20T15:41:08;6.47;;;3.28;;
22567;SDS011;11450;50.818;4.382;2022-11-20T15:43:36;4.63;;;3.22;;
22567;SDS011;11450;50.818;4.382;2022-11-20T15:46:04;5.13;;;2.75;;
22567;SDS011;11450;50.818;4.382;2022-11-20T15:48:47;5.75;;;3.30;;
22567;SDS011;11450;50.818;4.382;2022-11-20T15:51:21;6.47;;;3.05;;
22567;SDS011;11450;50.818;4.382;2022-11-20T15:53:54;5.82;;;3.10;;
22567;SDS011;11450;50.818;4.382;2022-11-20T15:56:20;9.60;;;3.30;;
22567;SDS011;11450;50.818;4.382;2022-11-20T15:59:01;9.13;;;3.15;;
22567;SDS011;11450;50.818;4.382;2022-11-20T16:01:27;8.93;;;3.33;;
22567;SDS011;11450;50.818;4.382;2022-11-20T16:03:52;9.25;;;3.85;;
22567;SDS011;11450;50.818;4.382;2022-11-20T16:06:18;7.75;;;3.60;;
22567;SDS011;11450;50.818;4.382;2022-11-20T16:08:44;7.95;;;3.00;;
22567;SDS011;11450;50.818;4.382;2022-11-20T16:11:11;10.82;;;3.83;;
22567;SDS011;11450;50.818;4.382;2022-11-20T16:13:38;10.90;;;4.15;;
22567;SDS011;11450;50.818;4.382;2022-11-20T16:16:23;19.70;;;11.13;;
22567;SDS011;11450;50.818;4.382;2022-11-20T16:18:55;25.88;;;15.07;;
22567;SDS011;11450;50.818;4.382;2022-11-20T16:21:21;8.85;;;4.22;;
22567;SDS011;11450;50.818;4.382;2022-11-20T16:23:53;10.10;;;3.88;;
22567;SDS011;11450;50.818;4.382;2022-11-20T16:26:18;13.32;;;3.22;;
22567;SDS011;11450;50.818;4.382;2022-11-20T16:28:45;10.55;;;3.67;;
22567;SDS011;11450;50.818;4.382;2022-11-20T16:31:16;11.38;;;3.58;;
22567;SDS011;11450;50.818;4.382;2022-11-20T16:33:43;9.02;;;3.42;;
22567;SDS011;11450;50.818;4.382;2022-11-20T16:36:15;13.52;;;5.55;;
22567;SDS011;11450;50.818;4.382;2022-11-20T16:38:41;14.45;;;4.88;;
22567;SDS011;11450;50.818;4.382;2022-11-20T16:41:07;15.27;;;4.97;;
22567;SDS011;11450;50.818;4.382;2022-11-20T16:48:53;16.60;;;4.80;;
22567;SDS011;11450;50.818;4.382;2022-11-20T16:51:19;15.98;;;4.72;;
22567;SDS011;11450;50.818;4.382;2022-11-20T16:53:45;15.90;;;4.55;;
22567;SDS011;11450;50.818;4.382;2022-11-20T16:56:14;12.55;;;4.03;;
22567;SDS011;11450;50.818;4.382;2022-11-20T16:58:42;15.40;;;4.72;;
22567;SDS011;11450;50.818;4.382;2022-11-20T17:01:10;14.20;;;4.57;;
22567;SDS011;11450;50.818;4.382;2022-11-20T17:03:40;13.25;;;4.05;;